Terminal Aerodrome Forecast
Issued by NWS

Home | Current Version | Previous Version | Text Only | Print | Product List | Glossary On
Versions: 1 2 3 4 5 6 7 8 9 10 11 12 13 14 15 16 17
000
FTUS43 KICT 071950 CCA
TAFSLN
TAF COR
KSLN 071950Z 0720/0818 01013KT 4SM -SN BKN013 OVC035
      TEMPO 0720/0722 P6SM NSW SCT015 OVC035
     FM072200 01009KT P6SM OVC035
     FM080000 34007KT P6SM OVC035
     FM080300 30007KT P6SM SCT050=

USA.gov is the U.S. government's official web portal to all federal, state and local government web resources and services.